• Join FlightAware (Why Join?)
  • Login
  • US Flag 
02:57AM EDT


 

Airport Tracker/Info


-or-


 

Live Flight TrackerFlight Track Log ✈ FDX1347 ✈ 02-Jul-2013 ✈ KALB - KMEM

Flight Track Log - Related Links

Times and Time Zones

All times are in EDT time to prevent confusion due to time zone crossing. See the FDX1347 flight status page for this flight to view local times or setup timezone preferences in your user account.

Time Position Orientation Groundspeed Altitude Reporting Facility
EDT Latitude Longitude Course Direction KTS MPH feet Rate Location/Type
09:59PM 42.7236 -73.8081 184° South 165 190 1,700  Level Boston Center
10:00PM 42.6986 -73.8103 184° South 170 196 2,700 2,100 Climbing Boston Center
10:01PM 42.6644 -73.8800 236° Southwest 250 288 4,900 2,220 Climbing Boston Center
10:01PM 42.6675 -73.9450 274° West 267 307 6,800 2,580 Climbing Boston Center
10:02PM 42.6892 -74.0444 287° West 294 338 9,600 1,980 Climbing Boston Center
10:08PM 42.4850 -74.6520 287° West 403 464 19,500 1,620 Climbing FlightAware
10:08PM 42.4420 -74.7190 229° Southwest 403 464 19,500  Level FlightAware
10:09PM 42.4030 -74.7800 229° Southwest 403 464 19,500  Level FlightAware
10:10PM 42.3640 -74.8400 229° Southwest 403 464 19,500 3,120 Level FlightAware
10:10PM 42.2960 -74.9520 231° Southwest 428 493 23,400 3,960 Climbing FlightAware
10:11PM 42.2410 -75.0370 229° Southwest 428 493 24,700 1,740 Climbing FlightAware
10:12PM 42.1800 -75.1340 230° Southwest 448 516 25,900 1,800 Climbing FlightAware
10:12PM 42.1220 -75.2230 229° Southwest 449 517 27,300 2,100 Climbing FlightAware
10:13PM 42.0720 -75.3040 230° Southwest 443 510 28,700 2,340 Climbing FlightAware
10:14PM 42.0270 -75.4030 239° Southwest 428 493 30,500 2,220 Climbing FlightAware
10:14PM 41.9880 -75.4980 241° Southwest 422 486 32,000 2,040 Climbing FlightAware
10:15PM 41.9470 -75.5980 241° Southwest 418 481 33,400 2,040 Climbing FlightAware
10:16PM 41.9060 -75.6950 240° Southwest 408 470 34,900 1,920 Climbing FlightAware
10:16PM 41.8750 -75.7720 242° Southwest 404 465 35,900 900 Climbing FlightAware
10:17PM 41.8432 -75.8477 241° Southwest 402 463 36,000 60 Climbing FlightAware ADS-B
10:17PM 41.8160 -75.9127 241° Southwest 398 458 36,000  Level FlightAware ADS-B
10:18PM 41.7888 -75.9771 240° Southwest 398 458 36,000  Level FlightAware ADS-B
10:19PM 41.7615 -76.0418 241° Southwest 400 460 36,000  Level FlightAware ADS-B
10:19PM 41.7337 -76.1090 241° Southwest 403 464 36,000  Level FlightAware ADS-B
10:20PM 41.7025 -76.1831 241° Southwest 405 466 36,000 60 Level FlightAware ADS-B
10:20PM 41.6737 -76.2507 240° Southwest 406 467 36,100 720 Climbing FlightAware ADS-B
10:21PM 41.6441 -76.3234 241° Southwest 406 467 36,800 1,380 Climbing FlightAware ADS-B
10:21PM 41.6138 -76.3978 241° Southwest 401 461 37,700 1,080 Climbing FlightAware ADS-B
10:22PM 41.5867 -76.4623 241° Southwest 396 456 38,000 240 Climbing FlightAware ADS-B
10:22PM 41.5602 -76.5278 242° Southwest 389 448 38,000  Level FlightAware ADS-B
10:23PM 41.5313 -76.5969 241° Southwest 388 447 38,000  Level FlightAware ADS-B
10:23PM 41.5043 -76.6620 241° Southwest 390 449 38,000  Level FlightAware ADS-B
10:24PM 41.4778 -76.7253 241° Southwest 393 452 38,000  Level FlightAware ADS-B
10:24PM 41.4492 -76.7931 241° Southwest 396 456 38,000  Level FlightAware ADS-B
10:25PM 41.4220 -76.8573 241° Southwest 398 458 38,000  Level FlightAware ADS-B
10:25PM 41.3913 -76.9321 241° Southwest 399 459 38,000  Level FlightAware ADS-B
10:26PM 41.3637 -76.9967 240° Southwest 401 461 38,000  Level FlightAware ADS-B
10:26PM 41.3358 -77.0633 241° Southwest 402 463 38,000  Level FlightAware ADS-B
10:27PM 41.3065 -77.1326 241° Southwest 405 466 38,000  Level FlightAware ADS-B
10:28PM 41.2737 -77.2087 240° Southwest 407 468 38,000  Level FlightAware ADS-B
10:28PM 41.2407 -77.2872 241° Southwest 408 470 38,000  Level FlightAware ADS-B
10:29PM 41.2160 -77.3460 241° Southwest 409 471 38,000  Level FlightAware
10:29PM 41.1844 -77.4183 240° Southwest 410 472 38,000  Level FlightAware ADS-B
10:30PM 41.1410 -77.5210 241° Southwest 410 472 38,000  Level FlightAware ADS-B
10:30PM 41.1112 -77.5908 240° Southwest 409 471 38,000  Level FlightAware ADS-B
10:31PM 41.0637 -77.6998 240° Southwest 409 471 38,000  Level FlightAware ADS-B
10:32PM 41.0310 -77.7780 241° Southwest 407 468 38,000  Level FlightAware
10:33PM 40.9970 -77.8550 240° Southwest 405 466 38,000  Level FlightAware
10:33PM 40.9540 -77.9540 240° Southwest 405 466 38,000  Level FlightAware
10:34PM 40.9210 -78.0300 240° Southwest 405 466 38,000  Level FlightAware
10:35PM 40.8840 -78.1150 240° Southwest 405 466 38,000  Level FlightAware
10:35PM 40.8420 -78.2110 240° Southwest 403 464 38,000  Level FlightAware
10:36PM 40.8050 -78.2940 240° Southwest 401 461 38,000  Level FlightAware
10:37PM 40.7630 -78.3890 240° Southwest 401 461 38,000  Level FlightAware
10:37PM 40.7250 -78.4760 240° Southwest 398 458 38,000  Level FlightAware
10:38PM 40.6840 -78.5700 240° Southwest 395 455 38,000  Level FlightAware
10:39PM 40.6470 -78.6530 240° Southwest 394 453 38,000  Level FlightAware
10:39PM 40.6190 -78.7150 239° Southwest 392 451 38,000  Level FlightAware
10:40PM 40.5780 -78.8070 240° Southwest 390 449 38,000  Level FlightAware
10:41PM 40.5370 -78.8990 240° Southwest 388 447 38,000  Level FlightAware
10:41PM 40.5060 -78.9680 239° Southwest 387 445 38,000  Level FlightAware
10:42PM 40.4590 -79.0710 239° Southwest 387 445 38,000  Level FlightAware
10:43PM 40.4190 -79.1600 239° Southwest 388 447 38,000  Level FlightAware
10:44PM 40.3810 -79.2430 239° Southwest 388 447 38,000  Level FlightAware
10:44PM 40.3490 -79.3140 239° Southwest 388 447 38,000  Level FlightAware
10:45PM 40.3120 -79.3950 239° Southwest 388 447 38,000  Level FlightAware
10:46PM 40.2750 -79.4780 240° Southwest 389 448 38,000  Level FlightAware
10:46PM 40.2400 -79.5530 239° Southwest 390 449 38,000  Level FlightAware
10:47PM 40.2000 -79.6400 239° Southwest 392 451 38,000  Level FlightAware
10:48PM 40.1600 -79.7280 239° Southwest 394 453 38,000  Level FlightAware
10:48PM 40.1200 -79.8130 238° Southwest 395 455 38,000  Level FlightAware
10:49PM 40.0810 -79.8970 239° Southwest 397 457 38,000  Level FlightAware
10:50PM 40.0420 -79.9810 239° Southwest 397 457 38,000  Level FlightAware
10:50PM 40.0000 -80.0720 239° Southwest 397 457 38,000  Level FlightAware
10:51PM 39.9660 -80.1460 239° Southwest 398 458 38,000  Level FlightAware
10:52PM 39.8990 -80.2870 238° Southwest 400 460 38,000  Level FlightAware
10:53PM 39.8610 -80.3700 239° Southwest 401 461 38,000  Level FlightAware
10:53PM 39.8210 -80.4540 238° Southwest 400 460 38,000  Level FlightAware
10:54PM 39.7960 -80.5070 238° Southwest 399 459 38,000  Level FlightAware
10:55PM 39.7520 -80.5990 238° Southwest 399 459 38,000  Level FlightAware
10:55PM 39.7090 -80.6900 238° Southwest 400 460 38,000  Level FlightAware
10:56PM 39.6710 -80.7690 238° Southwest 401 461 38,000  Level FlightAware
10:57PM 39.6260 -80.8640 238° Southwest 403 464 38,000  Level FlightAware
10:57PM 39.5870 -80.9460 238° Southwest 402 463 38,000  Level FlightAware
10:58PM 39.5470 -81.0300 238° Southwest 402 463 38,000  Level FlightAware
10:59PM 39.5070 -81.1130 238° Southwest 401 461 38,000  Level FlightAware
11:00PM 39.4600 -81.2090 238° Southwest 401 461 38,000  Level FlightAware
11:00PM 39.4290 -81.2740 238° Southwest 400 460 38,000  Level FlightAware
11:01PM 39.3870 -81.3610 238° Southwest 399 459 38,000  Level FlightAware
11:02PM 39.3470 -81.4420 237° Southwest 398 458 38,000  Level FlightAware
11:02PM 39.3050 -81.5270 237° Southwest 398 458 38,000  Level FlightAware
11:03PM 39.2650 -81.6110 238° Southwest 398 458 38,000  Level FlightAware
11:04PM 39.2240 -81.6950 238° Southwest 397 457 38,000  Level FlightAware
11:04PM 39.1820 -81.7810 238° Southwest 396 456 38,000 -540 Level FlightAware
11:05PM 39.1310 -81.8850 238° Southwest 396 456 37,200 -660 Descending FlightAware
11:06PM 39.0910 -81.9640 237° Southwest 399 459 37,000 -180 Descending FlightAware
11:07PM 39.0510 -82.0440 237° Southwest 398 458 37,000  Level FlightAware
11:07PM 39.0080 -82.1320 238° Southwest 396 456 37,000  Level FlightAware
11:08PM 38.9680 -82.2110 237° Southwest 396 456 37,000  Level FlightAware
11:09PM 38.9270 -82.2940 238° Southwest 395 455 37,000  Level FlightAware
11:09PM 38.8830 -82.3830 238° Southwest 393 452 37,000  Level FlightAware
11:10PM 38.8410 -82.4650 237° Southwest 392 451 37,000  Level FlightAware
11:11PM 38.8040 -82.5390 237° Southwest 390 449 37,000  Level FlightAware
11:11PM 38.7630 -82.6200 237° Southwest 390 449 37,000  Level FlightAware
11:12PM 38.7220 -82.7000 237° Southwest 389 448 37,000  Level FlightAware
11:13PM 38.6810 -82.7810 237° Southwest 390 449 37,000  Level FlightAware
11:14PM 38.6400 -82.8620 237° Southwest 390 449 37,000  Level FlightAware
11:15PM 38.5800 -82.9800 237° Southwest 390 449 37,000  Level FlightAware
11:15PM 38.5340 -83.0710 237° Southwest 389 448 37,000  Level FlightAware
11:16PM 38.4970 -83.1420 236° Southwest 389 448 37,000  Level FlightAware
11:17PM 38.4590 -83.2170 237° Southwest 389 448 37,000 540 Level FlightAware
11:17PM 38.4210 -83.2900 236° Southwest 388 447 37,700 660 Climbing FlightAware
11:18PM 38.3790 -83.3700 236° Southwest 387 445 38,000 180 Climbing FlightAware
11:19PM 38.3480 -83.4280 236° Southwest 387 445 38,000  Level FlightAware
11:19PM 38.3060 -83.5070 236° Southwest 387 445 38,000  Level FlightAware
11:20PM 38.2750 -83.5660 236° Southwest 387 445 38,000  Level FlightAware
11:21PM 38.2340 -83.6430 236° Southwest 387 445 38,000  Level FlightAware
11:21PM 38.2030 -83.7010 236° Southwest 387 445 38,000  Level FlightAware
11:22PM 38.1720 -83.7600 236° Southwest 387 445 38,000  Level FlightAware
11:23PM 38.1410 -83.8180 236° Southwest 387 445 38,000  Level FlightAware
11:23PM 38.1110 -83.8760 237° Southwest 387 445 38,000  Level FlightAware
11:24PM 38.0700 -83.9530 236° Southwest 387 445 38,000  Level FlightAware
11:25PM 38.0370 -84.0140 236° Southwest 387 445 38,000  Level FlightAware
11:25PM 37.9980 -84.0870 236° Southwest 387 445 38,000  Level FlightAware
11:26PM 37.8890 -84.3050 238° Southwest 385 443 38,000  Level FlightAware
11:27PM 37.8646 -84.3517 237° Southwest 386 444 38,000  Level FlightAware ADS-B
11:27PM 37.8334 -84.4095 236° Southwest 383 441 38,000  Level FlightAware ADS-B
11:28PM 37.8034 -84.4650 236° Southwest 382 440 38,000  Level FlightAware ADS-B
11:28PM 37.7736 -84.5206 236° Southwest 382 440 38,000  Level FlightAware ADS-B
11:29PM 37.7437 -84.5778 237° Southwest 382 440 38,000  Level FlightAware ADS-B
11:29PM 37.7128 -84.6349 236° Southwest 382 440 38,000  Level FlightAware ADS-B
11:30PM 37.6828 -84.6903 236° Southwest 382 440 38,000  Level FlightAware ADS-B
11:30PM 37.6529 -84.7454 236° Southwest 381 438 38,000  Level FlightAware ADS-B
11:31PM 37.6229 -84.8023 236° Southwest 379 436 38,000  Level FlightAware ADS-B
11:31PM 37.5930 -84.8571 235° Southwest 379 436 38,000  Level FlightAware ADS-B
11:32PM 37.5614 -84.9156 236° Southwest 379 436 38,000  Level FlightAware ADS-B
11:32PM 37.5315 -84.9702 235° Southwest 379 436 38,000  Level FlightAware ADS-B
11:33PM 37.5019 -85.0247 236° Southwest 378 435 38,000  Level FlightAware ADS-B
11:33PM 37.4718 -85.0792 235° Southwest 379 436 38,000  Level FlightAware ADS-B
11:34PM 37.4409 -85.1374 236° Southwest 379 436 38,000  Level FlightAware ADS-B
11:34PM 37.4110 -85.1920 235° Southwest 379 436 38,000  Level FlightAware ADS-B
11:35PM 37.3810 -85.2465 235° Southwest 379 436 38,000  Level FlightAware ADS-B
11:35PM 37.3502 -85.3027 235° Southwest 378 435 38,000  Level FlightAware ADS-B
11:36PM 37.3147 -85.3679 236° Southwest 379 436 38,000  Level FlightAware ADS-B
11:36PM 37.2782 -85.4332 235° Southwest 379 436 38,000  Level FlightAware ADS-B
11:37PM 37.2461 -85.4911 235° Southwest 379 436 38,000  Level FlightAware ADS-B
11:37PM 37.2156 -85.5472 236° Southwest 380 437 38,000  Level FlightAware ADS-B
11:38PM 37.1850 -85.6016 235° Southwest 379 436 38,000  Level FlightAware ADS-B
11:38PM 37.1548 -85.6575 236° Southwest 379 436 38,000  Level FlightAware ADS-B
11:39PM 37.1219 -85.7155 235° Southwest 380 437 38,000  Level FlightAware ADS-B
11:40PM 37.0915 -85.7714 236° Southwest 379 436 38,000  Level FlightAware ADS-B
11:40PM 37.0610 -85.8256 235° Southwest 380 437 38,000  Level FlightAware ADS-B
11:41PM 37.0274 -85.8850 235° Southwest 380 437 38,000  Level FlightAware ADS-B
11:41PM 37.0028 -85.9296 235° Southwest 378 435 38,000  Level FlightAware ADS-B
11:41PM 36.9839 -85.9528 224° Southwest 370 426 38,000  Level FlightAware ADS-B
11:41PM 36.9689 -85.9667 217° Southwest 366 421 38,000  Level FlightAware ADS-B
11:42PM 36.9571 -85.9751 210° Southwest 363 418 38,000  Level FlightAware ADS-B
11:42PM 36.9433 -85.9824 203° Southwest 361 415 38,000  Level FlightAware ADS-B
11:42PM 36.9218 -85.9895 195° South 362 417 38,000  Level FlightAware ADS-B
11:42PM 36.8706 -86.0000 189° South 363 418 38,000  Level FlightAware ADS-B
11:43PM 36.8213 -86.0096 189° South 364 419 38,000  Level FlightAware ADS-B
11:43PM 36.8052 -86.0139 192° South 364 419 38,000  Level FlightAware ADS-B
11:43PM 36.7949 -86.0175 196° South 364 419 38,000  Level FlightAware ADS-B
11:43PM 36.7813 -86.0244 202° Southwest 365 420 38,000  Level FlightAware ADS-B
11:44PM 36.7666 -86.0340 208° Southwest 365 420 38,000  Level FlightAware ADS-B
11:44PM 36.7543 -86.0434 211° Southwest 367 422 38,000  Level FlightAware ADS-B
11:44PM 36.7426 -86.0556 220° Southwest 370 426 38,000  Level FlightAware ADS-B
11:44PM 36.7321 -86.0694 226° Southwest 374 430 38,000  Level FlightAware ADS-B
11:44PM 36.7264 -86.0777 229° Southwest 376 433 38,000  Level FlightAware ADS-B
11:44PM 36.7184 -86.0921 235° Southwest 380 437 38,000  Level FlightAware ADS-B
11:45PM 36.6908 -86.1486 239° Southwest 383 441 38,000  Level FlightAware ADS-B
11:45PM 36.6628 -86.2077 239° Southwest 384 442 38,000  Level FlightAware ADS-B
11:46PM 36.6355 -86.2665 240° Southwest 384 442 38,000  Level FlightAware ADS-B
11:46PM 36.6080 -86.3236 239° Southwest 385 443 38,000  Level FlightAware ADS-B
11:47PM 36.5801 -86.3803 239° Southwest 385 443 38,000  Level FlightAware ADS-B
11:47PM 36.5420 -86.4600 239° Southwest 386 444 38,000  Level FlightAware
11:48PM 36.5000 -86.5460 239° Southwest 386 444 38,000  Level FlightAware
11:49PM 36.4620 -86.6240 239° Southwest 386 444 38,000  Level FlightAware
11:50PM 36.4250 -86.6990 239° Southwest 385 443 38,000  Level FlightAware
11:50PM 36.3880 -86.7750 239° Southwest 385 443 38,000  Level FlightAware
11:51PM 36.3460 -86.8620 239° Southwest 385 443 38,000  Level FlightAware
11:52PM 36.3060 -86.9430 239° Southwest 385 443 38,000  Level FlightAware
11:52PM 36.2710 -87.0130 238° Southwest 385 443 38,000 -540 Level FlightAware
11:53PM 36.2320 -87.0940 239° Southwest 385 443 37,300 -1,260 Descending FlightAware
11:54PM 36.1900 -87.1770 238° Southwest 391 450 36,200 -1,440 Descending FlightAware
11:54PM 36.1510 -87.2550 238° Southwest 390 449 35,300 -840 Descending FlightAware
11:55PM 36.1090 -87.3410 239° Southwest 391 450 35,000 -240 Descending FlightAware
11:56PM 36.0730 -87.4120 238° Southwest 389 448 35,000  Level FlightAware
11:57PM 36.0320 -87.4950 239° Southwest 387 445 35,000  Level FlightAware
11:57PM 35.9920 -87.5760 239° Southwest 387 445 35,000 -480 Level FlightAware
11:58PM 35.9530 -87.6530 238° Southwest 390 449 34,400 -1,380 Descending FlightAware
11:59PM 35.9100 -87.7370 238° Southwest 401 461 33,100 -1,620 Descending FlightAware
11:59PM 35.8720 -87.8140 239° Southwest 405 466 32,200 -1,440 Descending FlightAware
12:00AM 35.8390 -87.8790 238° Southwest 410 472 31,300 -1,140 Descending FlightAware
12:01AM 35.7960 -87.9630 238° Southwest 414 476 30,700 -420 Descending FlightAware
12:01AM 35.7550 -88.0450 238° Southwest 414 476 30,700  Level FlightAware
12:02AM 35.7240 -88.1060 238° Southwest 414 476 30,700  Level FlightAware
12:03AM 35.6810 -88.1900 238° Southwest 414 476 30,700  Level FlightAware
12:03AM 35.6500 -88.2510 238° Southwest 414 476 30,700  Level FlightAware
12:04AM 35.6190 -88.3120 238° Southwest 414 476 30,700  Level FlightAware
12:05AM 35.5770 -88.3950 238° Southwest 414 476 30,700  Level FlightAware
12:05AM 35.5460 -88.4560 238° Southwest 414 476 30,700  Level FlightAware
12:06AM 35.5120 -88.5220 238° Southwest 414 476 30,700  Level FlightAware
12:07AM 35.4810 -88.5830 238° Southwest 414 476 30,700  Level FlightAware
12:07AM 35.4400 -88.6650 238° Southwest 414 476 30,700  Level FlightAware
12:08AM 35.4090 -88.7260 238° Southwest 414 476 30,700  Level FlightAware
12:09AM 35.3670 -88.8070 238° Southwest 414 476 30,700  Level FlightAware
12:09AM 35.3360 -88.8680 238° Southwest 414 476 30,700 -12,360 Level FlightAware
12:10AM 35.1617 -88.9067 238° Southwest 335 386 12,800 -10,800 Descending Memphis Center
12:11AM 35.0997 -88.9867 227° Southwest 327 376 10,800 -1,380 Descending Memphis Center
12:12AM 35.0422 -89.0611 227° Southwest 327 376 10,100 -960 Descending Memphis Center
12:13AM 35.0347 -89.1447 264° West 283 326 8,900 -1,500 Descending Memphis Center
12:14AM 35.0378 -89.2386 272° West 282 325 7,200 -1,500 Descending Memphis Center
12:15AM 35.0406 -89.3325 272° West 282 325 6,000 -660 Descending Memphis Center
12:16AM 35.0456 -89.4236 274° West 282 325 5,900 -780 Descending Memphis Center
12:17AM 35.0461 -89.5150 270° West 277 319 4,500 -960 Descending Memphis Center
12:18AM 35.0508 -89.5911 274° West 250 288 4,000 -660 Descending Memphis Center
12:19AM 35.0511 -89.6594 270° West 214 246 3,200 -540 Descending Memphis Center
12:20AM 35.0517 -89.7256 271° West 204 235 3,000 -120 Descending Memphis Center
12:21AM 35.0539 -89.7864 273° West 189 217 3,000 -480 Level Memphis Center
12:22AM 35.0564 -89.8472 273° West 182 209 2,100 -900 Descending Memphis Center
12:23AM 35.0567 -89.8978 270° West 161 185 1,300 -780 Descending Memphis Center
12:24AM 35.0589 -89.9461 273° West 148 170 600 -360 Descending Memphis Center
12:25AM 35.0589 -89.9942 270° West 148 170 600  Level Memphis Center
12:27AM 35.0424 -89.9767 270° West  Level Estimated
12:34AM 35.0424 -89.9767 270° West  Level Estimated
12:35AM 35.0424 -89.9767 270° West  Level Estimated
12:36AM 35.0424 -89.9767 270° West  Level Estimated
12:37AM 35.0424 -89.9767 270° West  Level Estimated
12:38AM 35.0424 -89.9767 270° West  Level Estimated
12:39AM 35.0424 -89.9767 270° West  Level Estimated